Home > Products > Valid Products > MTR

000
SAUS46 KSGX 231553
MTRCZZ
METAR KCZZ 231552Z AUTO 00000KT 26/07 A3003 RMK AO1 SLP136 T02560067





000
SAUS46 KSGX 231552
MTRSAN
METAR KSAN 231551Z 00000KT 5SM BR SCT009 21/17 A2998 RMK AO2 SLP153
T02060167





000
SAUS46 KSGX 231453
MTRCZZ
METAR KCZZ 231452Z AUTO 00000KT 19/07 A3003 RMK AO1 SLP138 T01890067
53009





000
SAUS46 KSGX 231452
MTRSAN
METAR KSAN 231451Z 00000KT 5SM BR BKN007 19/17 A2997 RMK AO2 SLP149
T01940167 53007





000
SAUS46 KSGX 231409
MTRSAN
METAR KSAN 231351Z COR 05003KT 5SM BR FEW005 BKN008 19/17 A2996 RMK
AO2 SLP145 T01940167





000
SAUS46 KSGX 231353
MTRCZZ
METAR KCZZ 231352Z AUTO 05006KT 14/05 A3001 RMK AO1 SLP135 T01390050





000
SAUS46 KSGX 231352
MTRSAN
METAR KSAN 231351Z 05003KT 5SM HZ FEW005 BKN008 19/17 A2996 RMK AO2
SLP145 T01940167





000
SAUS46 KSGX 231253
MTRSAN
METAR KSAN 231251Z 04005KT 7SM BKN010 19/17 A2995 RMK AO2 SLP141
T01940167





000
SAUS46 KSGX 231253
MTRCZZ
METAR KCZZ 231252Z AUTO 04004KT 14/04 A3000 RMK AO1 SLP128 T01390044





000
SAUS46 KSGX 231153
MTRCZZ
METAR KCZZ 231152Z AUTO 04005KT 13/04 A2999 RMK AO1 SLP124 T01280039
10161 20117 56006





000
SAUS46 KSGX 231152
MTRSAN
METAR KSAN 231151Z 36004KT 8SM OVC010 20/17 A2994 RMK AO2 SLP140
T02000167 10211 20194 56008





000
SAUS46 KSGX 231053
MTRCZZ
METAR KCZZ 231052Z AUTO 04005KT 12/04 A3000 RMK AO1 SLP126 T01220039





000
SAUS46 KSGX 231052
MTRSAN
METAR KSAN 231051Z 03005KT 9SM OVC010 20/17 A2995 RMK AO2 SLP141
T02000167





000
SAUS46 KSGX 230953
MTRCZZ
METAR KCZZ 230952Z AUTO 04004KT 14/05 A3000 RMK AO1 SLP126 T01390050





000
SAUS46 KSGX 230952
MTRSAN
METAR KSAN 230951Z 03005KT 9SM OVC012 21/17 A2996 RMK AO2 SLP143
T02060172





000
SAUS46 KSGX 230853
MTRCZZ
METAR KCZZ 230852Z AUTO 04005KT 14/06 A3001 RMK AO1 SLP129 T01440056
55002





000
SAUS46 KSGX 230852
MTRSAN
METAR KSAN 230851Z 02004KT 10SM BKN012 21/17 A2997 RMK AO2 SLP147
T02060172 55001





000
SAUS46 KSGX 230753
MTRCZZ
METAR KCZZ 230752Z AUTO 04005KT 14/06 A3001 RMK AO1 SLP128 T01440056
403280100





000
SAUS46 KSGX 230752
MTRSAN
METAR KSAN 230751Z 01003KT 10SM BKN010 21/18 A2996 RMK AO2 SLP146
T02110178 402560200





000
SAUS46 KSGX 230716
MTRSAN
SPECI KSAN 230715Z 35003KT 10SM BKN010 21/18 A2996 RMK AO2





000
SAUS46 KSGX 230653
MTRCZZ
METAR KCZZ 230652Z AUTO 04005KT 15/06 A3001 RMK AO1 SLP128 T01500061





000
SAUS46 KSGX 230652
MTRSAN
METAR KSAN 230651Z 00000KT 10SM SCT010 21/18 A2996 RMK AO2 SLP146
T02110178





000
SAUS46 KSGX 230553
MTRCZZ
METAR KCZZ 230552Z AUTO 06006KT 16/07 A3002 RMK AO1 SLP131 T01610067
10311 20161 51014





000
SAUS46 KSGX 230552
MTRSAN
METAR KSAN 230551Z 00000KT 10SM SCT013 21/18 A2997 RMK AO2 SLP148
T02110178 10244 20211 51013





000
SAUS46 KSGX 230453
MTRCZZ
METAR KCZZ 230452Z AUTO 06005KT 16/07 A3001 RMK AO1 SLP129 T01610072





000
SAUS46 KSGX 230452
MTRSAN
METAR KSAN 230451Z 03003KT 10SM SCT013 21/18 A2996 RMK AO2 SLP144
T02110178





000
SAUS46 KSGX 230353
MTRCZZ
METAR KCZZ 230352Z AUTO 03003KT 18/07 A2999 RMK AO1 SLP124 T01830072





000
SAUS46 KSGX 230352
MTRSAN
METAR KSAN 230351Z 33006KT 10SM FEW015 22/18 A2994 RMK AO2 SLP139
T02170178





000
SAUS46 KSGX 230253
MTRCZZ
METAR KCZZ 230252Z AUTO 00000KT 21/11 A2998 RMK AO1 SLP123 T02060111
53007





000
SAUS46 KSGX 230252
MTRSAN
METAR KSAN 230251Z 31006KT 10SM FEW015 22/18 A2993 RMK AO2 SLP135
T02220178 53003





000
SAUS46 KSGX 230153
MTRCZZ
METAR KCZZ 230152Z AUTO 00000KT 24/13 A2996 RMK AO1 SLP119 T02440128





000
SAUS46 KSGX 230152
MTRSAN
METAR KSAN 230151Z 31007KT 10SM FEW015 22/17 A2992 RMK AO2 SLP130
T02220172





000
SAUS46 KSGX 230053
MTRCZZ
METAR KCZZ 230052Z AUTO 22008KT 29/08 A2995 RMK AO1 SLP112 T02940078





000
SAUS46 KSGX 230052
MTRSAN
METAR KSAN 230051Z 30005KT 10SM FEW015 24/17 A2992 RMK AO2 SLP130
T02390172





000
SAUS46 KSGX 222353
MTRCZZ
METAR KCZZ 222352Z AUTO 23009KT 31/07 A2995 RMK AO1 SLP111 T03110072
10328 20306 56009





000
SAUS46 KSGX 222352
MTRSAN
METAR KSAN 222351Z 30009KT 10SM FEW015 24/17 A2992 RMK AO2 SLP132
T02390172 10256 20239 56012





000
SAUS46 KSGX 222253
MTRCZZ
METAR KCZZ 222252Z AUTO 23007G18KT 190V270 31/07 A2996 RMK AO1
SLP113 T03110067





000
SAUS46 KSGX 222252
MTRSAN
METAR KSAN 222251Z 29012KT 10SM FEW015 24/17 A2993 RMK AO2 SLP136
T02440172





000
SAUS46 KSGX 222153
MTRCZZ
METAR KCZZ 222152Z AUTO 22014G20KT 32/06 A2997 RMK AO1 SLP116
T03170056





000
SAUS46 KSGX 222152
MTRSAN
METAR KSAN 222151Z 29008KT 10SM FEW015 25/17 A2994 RMK AO2 SLP138
T02500167





000
SAUS46 KSGX 222053
MTRCZZ
METAR KCZZ 222052Z AUTO 18018G23KT 32/M01 A2998 RMK AO1 SLP120
T03221006 58009





000
SAUS46 KSGX 222052
MTRSAN
METAR KSAN 222051Z 27008KT 10SM CLR 25/17 A2996 RMK AO2 SLP144
T02500167 58013





000
SAUS46 KSGX 221953
MTRCZZ
METAR KCZZ 221952Z AUTO 20010G14KT 32/M03 A3000 RMK AO1 SLP126
T03171033





000
SAUS46 KSGX 221952
MTRSAN
METAR KSAN 221951Z 28009KT 10SM FEW018 24/17 A2998 RMK AO2 SLP153
T02390167





000
SAUS46 KSGX 221853
MTRCZZ
METAR KCZZ 221852Z AUTO 18010KT 32/M07 A3001 RMK AO1 SLP128
T03171067





000
SAUS46 KSGX 221852
MTRSAN
METAR KSAN 221851Z 32008KT 10SM FEW018 24/17 A2999 RMK AO2 SLP156
T02390167





000
SAUS46 KSGX 221753
MTRCZZ
METAR KCZZ 221752Z AUTO 18008KT 31/M01 A3001 RMK AO1 SLP130
T03061006 10306 20100 58001





000
SAUS46 KSGX 221753
MTRSAN
METAR KSAN 221751Z 30006KT 10SM FEW018 24/16 A3000 RMK AO2 SLP157
T02390161 10244 20200 50002





000
SAUS46 KSGX 221653
MTRCZZ
METAR KCZZ 221652Z AUTO 19006KT 28/04 A3002 RMK AO1 SLP132 T02830044





000
SAUS46 KSGX 221652
MTRSAN
METAR KSAN 221651Z 00000KT 10SM FEW018 23/16 A3000 RMK AO2 SLP158
T02280161





000
SAUS46 KSGX 221601
MTRSAN
SPECI KSAN 221601Z 05005KT 10SM SCT018 22/16 A3000 RMK AO2





000
SAUS46 KSGX 221553
MTRCZZ
METAR KCZZ 221552Z AUTO 00000KT 24/08 A3002 RMK AO1 SLP135 T02390078





000
SAUS46 KSGX 221552
MTRSAN
METAR KSAN 221551Z 04006KT 10SM BKN018 22/16 A3000 RMK AO2 SLP157
T02170156





000
SAUS46 KSGX 221453
MTRCZZ
METAR KCZZ 221452Z AUTO 04003KT 16/07 A3001 RMK AO1 SLP137 T01610072
53009





000
SAUS46 KSGX 221452
MTRSAN
METAR KSAN 221451Z 35004KT 10SM BKN017 21/16 A2999 RMK AO2 SLP155
T02110161 53010





000
SAUS46 KSGX 221353
MTRCZZ
METAR KCZZ 221352Z AUTO 04005KT 12/06 A3000 RMK AO1 SLP135 T01170061





000
SAUS46 KSGX 221352
MTRSAN
METAR KSAN 221351Z 01003KT 10SM BKN016 21/16 A2998 RMK AO2 SLP150
T02110161





000
SAUS46 KSGX 221253
MTRCZZ
METAR KCZZ 221252Z AUTO 05005KT 12/07 A2999 RMK AO1 SLP128 T01220067





000
SAUS46 KSGX 221252
MTRSAN
METAR KSAN 221251Z 00000KT 10SM BKN016 21/16 A2996 RMK AO2 SLP146
T02060161 $





000
SAUS46 KSGX 221153
MTRCZZ
METAR KCZZ 221152Z AUTO 04006KT 12/07 A2999 RMK AO1 SLP125 T01220067
10144 20100 55003





000
SAUS46 KSGX 221152
MTRSAN
METAR KSAN 221151Z 00000KT 10SM BKN016 20/17 A2996 RMK AO2 SLP145
T02000167 10217 20200 55003 $





000
SAUS46 KSGX 221053
MTRCZZ
METAR KCZZ 221052Z AUTO 03004KT 12/06 A2998 RMK AO1 SLP123 T01220061





000
SAUS46 KSGX 221052
MTRSAN
METAR KSAN 221051Z 03003KT 10SM FEW015 20/17 A2995 RMK AO2 SLP143
T02000167 $





000
SAUS46 KSGX 220953
MTRCZZ
METAR KCZZ 220952Z AUTO 06004KT 13/07 A2998 RMK AO1 SLP123 T01280067





000
SAUS46 KSGX 220952
MTRSAN
METAR KSAN 220951Z 36003KT 10SM FEW015 20/17 A2996 RMK AO2 SLP145
T02000167 $





000
SAUS46 KSGX 220853
MTRCZZ
METAR KCZZ 220852Z AUTO 06005KT 12/06 A2999 RMK AO1 SLP127 T01170061
50000





000
SAUS46 KSGX 220853
MTRSAN
METAR KSAN 220851Z 01003KT 10SM FEW015 21/17 A2997 RMK AO2 SLP148
T02060167 56000 $





000
SAUS46 KSGX 220753
MTRCZZ
METAR KCZZ 220752Z AUTO 04005KT 13/07 A3000 RMK AO1 SLP128 T01280072
402940072





000
SAUS46 KSGX 220752
MTRSAN
METAR KSAN 220751Z 00000KT 10SM FEW014 21/17 A2997 RMK AO2 SLP148
T02110167 402560211 $





000
SAUS46 KSGX 220653
MTRCZZ
METAR KCZZ 220652Z AUTO 06004KT 13/09 A2999 RMK AO1 SLP127 T01330094





000
SAUS46 KSGX 220652
MTRSAN
METAR KSAN 220651Z 02003KT 10SM FEW015 21/17 A2997 RMK AO2 SLP147
T02110167 $





000
SAUS46 KSGX 220553
MTRCZZ
METAR KCZZ 220552Z AUTO 06004KT 14/10 A2999 RMK AO1 SLP128 T01390100
10272 20139 51009





000
SAUS46 KSGX 220552
MTRSAN
METAR KSAN 220551Z 01003KT 10SM FEW015 22/17 A2997 RMK AO2 SLP148
T02170167 10244 20217 51008 $





000
SAUS46 KSGX 220453
MTRCZZ
METAR KCZZ 220452Z AUTO 01003KT 16/11 A2999 RMK AO1 SLP127 T01560111





000
SAUS46 KSGX 220452
MTRSAN
METAR KSAN 220451Z 34005KT 10SM SCT015 22/17 A2996 RMK AO2 SLP146
T02170167 $





000
SAUS46 KSGX 220432
MTRSAN
SPECI KSAN 220431Z 36005KT 10SM BKN015 22/17 A2996 RMK AO2 $





000
SAUS46 KSGX 220353
MTRCZZ
METAR KCZZ 220352Z AUTO 02003KT 16/12 A2998 RMK AO1 SLP125 T01610117





000
SAUS46 KSGX 220352
MTRSAN
METAR KSAN 220351Z 34008KT 9SM SCT015 22/17 A2995 RMK AO2 SLP142
T02220167 $





000
SAUS46 KSGX 220253
MTRCZZ
METAR KCZZ 220252Z AUTO 22004KT 19/14 A2996 RMK AO1 SLP123 T01940139
53008





000
SAUS46 KSGX 220252
MTRSAN
METAR KSAN 220251Z 32008KT 10SM SCT012 22/17 A2995 RMK AO2 SLP140
T02220167 53004





000
SAUS46 KSGX 220153
MTRCZZ
METAR KCZZ 220152Z AUTO 22007KT 21/14 A2995 RMK AO1 SLP122 T02110139





000
SAUS46 KSGX 220152
MTRSAN
METAR KSAN 220151Z 32008KT 10SM FEW015 23/17 A2994 RMK AO2 SLP137
T02280167





000
SAUS46 KSGX 220053
MTRCZZ
METAR KCZZ 220052Z AUTO 22013KT 24/13 A2994 RMK AO1 SLP114 T02440133





000
SAUS46 KSGX 220052
MTRSAN
METAR KSAN 220051Z 31009KT 10SM FEW025 23/16 A2993 RMK AO2 SLP135
T02330161





000
SAUS46 KSGX 212353
MTRCZZ
METAR KCZZ 212352Z AUTO 23011KT 27/11 A2994 RMK AO1 SLP111 T02720106
10294 20256 56006





000
SAUS46 KSGX 212352
MTRSAN
METAR KSAN 212351Z 30011KT 10SM FEW025 24/16 A2993 RMK AO2 SLP136
T02390161 10256 20239 56008





000
SAUS46 KSGX 212253
MTRCZZ
METAR KCZZ 212252Z AUTO 20011KT 28/07 A2994 RMK AO1 SLP111 T02780072





000
SAUS46 KSGX 212252
MTRSAN
METAR KSAN 212251Z 29013KT 10SM SCT020 24/16 A2994 RMK AO2 SLP139
T02440156





000
SAUS46 KSGX 212153
MTRCZZ
METAR KCZZ 212152Z AUTO 23013G19KT 29/04 A2995 RMK AO1 SLP112
T02890039





000
SAUS46 KSGX 212152
MTRSAN
METAR KSAN 212151Z 29011KT 10SM FEW025 25/14 A2995 RMK AO2 SLP141
T02500144





000
SAUS46 KSGX 212053
MTRCZZ
METAR KCZZ 212052Z AUTO 23008G16KT 28/03 A2996 RMK AO1 SLP114
T02830028 58013





000
SAUS46 KSGX 212052
MTRSAN
METAR KSAN 212051Z 28013G17KT 10SM FEW025 25/15 A2996 RMK AO2 SLP144
T02500150 58013





000
SAUS46 KSGX 211953
MTRCZZ
METAR KCZZ 211952Z AUTO 22009G15KT 180V250 28/01 A2997 RMK AO1
SLP120 T02830011





000
SAUS46 KSGX 211952
MTRSAN
METAR KSAN 211951Z 29009KT 10SM FEW025 25/14 A2997 RMK AO2 SLP149
T02500144





000
SAUS46 KSGX 211853
MTRCZZ
METAR KCZZ 211852Z AUTO 21009KT 27/M03 A2998 RMK AO1 SLP124
T02721028





000
SAUS46 KSGX 211852
MTRSAN
METAR KSAN 211851Z 29009KT 10SM FEW025 25/14 A2998 RMK AO2 SLP153
T02500144





000
SAUS46 KSGX 211753
MTRCZZ
METAR KCZZ 211752Z AUTO 23005KT 26/02 A3000 RMK AO1 SLP130 T02560022
10261 20072 53002





000
SAUS46 KSGX 211752
MTRSAN
METAR KSAN 211751Z 29008KT 10SM FEW030 24/14 A3000 RMK AO2 SLP157
T02390144 10244 20217 51005





000
SAUS46 KSGX 211654
MTRCZZ
METAR KCZZ 211652Z AUTO 00000KT 24/01 A3000 RMK AO1 SLP129 T02390006





000
SAUS46 KSGX 211653
MTRSAN
METAR KSAN 211651Z 29004KT 10SM SCT030 23/14 A3000 RMK AO2 SLP157
T02330144





000
SAUS46 KSGX 211553
MTRCZZ
METAR KCZZ 211552Z AUTO 00000KT 20/08 A2999 RMK AO1 SLP126 T02000083





000
SAUS46 KSGX 211553
MTRSAN
METAR KSAN 211551Z 33005KT 10SM BKN030 23/14 A2999 RMK AO2 SLP155
T02280144





000
SAUS46 KSGX 211453
MTRCZZ
METAR KCZZ 211452Z AUTO 06004KT 12/06 A2999 RMK AO1 SLP133 T01220061
53008





000
SAUS46 KSGX 211452
MTRSAN
METAR KSAN 211451Z 06003KT 10SM BKN030 22/16 A2998 RMK AO2 SLP151
T02220161 53009





000
SAUS46 KSGX 211353
MTRCZZ
METAR KCZZ 211352Z AUTO 03003KT 08/03 A2998 RMK AO1 SLP133 T00780033





000
SAUS46 KSGX 211352
MTRSAN
METAR KSAN 211351Z 00000KT 10SM BKN030 22/16 A2997 RMK AO2 SLP147
T02170161





000
SAUS46 KSGX 211253
MTRCZZ
METAR KCZZ 211252Z AUTO 05004KT 08/05 A2997 RMK AO1 SLP126 T00830050





000
SAUS46 KSGX 211252
MTRSAN
METAR KSAN 211251Z 36003KT 10SM BKN030 22/16 A2995 RMK AO2 SLP143
T02170156





000
SAUS46 KSGX 211213
MTRSAN
SPECI KSAN 211211Z 36003KT 10SM BKN030 22/16 A2996 RMK AO2





000
SAUS46 KSGX 211153
MTRCZZ
METAR KCZZ 211152Z AUTO 04005KT 08/05 A2997 RMK AO1 SLP123 T00780050
10133 20078 55000





000
SAUS46 KSGX 211153
MTRSAN
METAR KSAN 211151Z 00000KT 10SM SCT023 BKN029 22/16 A2995 RMK AO2
SLP143 T02170156 10217 20211 53001





000
SAUS46 KSGX 211117
MTRSAN
SPECI KSAN 211116Z 30003KT 10SM SCT023 BKN029 22/16 A2995 RMK AO2





000
SAUS46 KSGX 211053
MTRCZZ
METAR KCZZ 211052Z AUTO 05004KT 09/06 A2996 RMK AO1 SLP119 T00890056





000
SAUS46 KSGX 211053
MTRSAN
METAR KSAN 211051Z 35003KT 10SM SCT027 BKN031 22/16 A2995 RMK AO2
SLP142 T02170161





000
SAUS46 KSGX 211048
MTRSAN
SPECI KSAN 211047Z 00000KT 10SM SCT027 BKN031 22/16 A2995 RMK AO2





000
SAUS46 KSGX 210953
MTRCZZ
METAR KCZZ 210952Z AUTO 05004KT 10/08 A2996 RMK AO1 SLP116 T01000078





000
SAUS46 KSGX 210952
MTRSAN
METAR KSAN 210951Z 00000KT 10SM BKN022 22/16 A2995 RMK AO2 SLP142
T02170161





000
SAUS46 KSGX 210853
MTRCZZ
METAR KCZZ 210852Z AUTO 05005KT 10/08 A2997 RMK AO1 SLP119 T01000078
58002





000
SAUS46 KSGX 210852
MTRSAN
METAR KSAN 210851Z 00000KT 10SM BKN024 21/16 A2996 RMK AO2 SLP144
T02110161 50000





000
SAUS46 KSGX 210801
MTRSAN
SPECI KSAN 210759Z 00000KT 10SM BKN022 21/16 A2996 RMK AO2





000
SAUS46 KSGX 210753
MTRCZZ
METAR KCZZ 210752Z AUTO 03004KT 11/09 A2997 RMK AO1 SLP121 T01110089
402780100





000
SAUS46 KSGX 210752
MTRSAN
METAR KSAN 210751Z 00000KT 10SM SCT024 21/16 A2996 RMK AO2 SLP145
T02110161 402500211





000
SAUS46 KSGX 210653
MTRCZZ
METAR KCZZ 210652Z AUTO 05003KT 12/10 A2998 RMK AO1 SLP122 T01220100





000
SAUS46 KSGX 210652
MTRSAN
METAR KSAN 210651Z 00000KT 10SM FEW012 22/16 A2996 RMK AO2 SLP144
T02170161





000
SAUS46 KSGX 210553
MTRCZZ
METAR KCZZ 210552Z AUTO 04004KT 12/10 A2997 RMK AO1 SLP122 T01220100
10256 20122 51012





000
SAUS46 KSGX 210552
MTRSAN
METAR KSAN 210551Z 00000KT 10SM FEW012 22/16 A2996 RMK AO2 SLP143
T02170156 10244 20217 51012





000
SAUS46 KSGX 210453
MTRCZZ
METAR KCZZ 210452Z AUTO 00000KT 14/11 A2996 RMK AO1 SLP117 T01440111





000
SAUS46 KSGX 210452
MTRSAN
METAR KSAN 210451Z 01003KT 10SM FEW012 22/16 A2995 RMK AO2 SLP140
T02170156





000
SAUS46 KSGX 210353
MTRCZZ
METAR KCZZ 210352Z AUTO 19003KT 17/13 A2995 RMK AO1 SLP114 T01720128





000
SAUS46 KSGX 210352
MTRSAN
METAR KSAN 210351Z 30004KT 10SM FEW012 22/16 A2994 RMK AO2 SLP137
T02220156





000
SAUS46 KSGX 210253
MTRCZZ
METAR KCZZ 210252Z AUTO 21005KT 18/13 A2994 RMK AO1 SLP111 T01830133
53009





000
SAUS46 KSGX 210252
MTRSAN
METAR KSAN 210251Z 31005KT 10SM FEW012 22/16 A2992 RMK AO2 SLP131
T02220156 53005





000
SAUS46 KSGX 210153
MTRCZZ
METAR KCZZ 210152Z AUTO 22010KT 20/13 A2992 RMK AO1 SLP109 T02000133





000
SAUS46 KSGX 210152
MTRSAN
METAR KSAN 210151Z 31004KT 9SM FEW012 23/15 A2991 RMK AO2 SLP128
T02280150





000
SAUS46 KSGX 210053
MTRCZZ
METAR KCZZ 210052Z AUTO 21012KT 23/13 A2991 RMK AO1 SLP102 T02330133





000
SAUS46 KSGX 210052
MTRSAN
METAR KSAN 210051Z 31006KT 10SM FEW012 23/15 A2990 RMK AO2 SLP126
T02330150





000
SAUS46 KSGX 202353
MTRCZZ
METAR KCZZ 202352Z AUTO 22014KT 25/13 A2990 RMK AO1 SLP100 T02500133
10278 20250 55003





000
SAUS46 KSGX 202352
MTRSAN
METAR KSAN 202351Z 32006KT 10SM FEW012 SCT080 24/15 A2990 RMK AO2
SLP126 T02390150 10250 20233 56007





000
SAUS46 KSGX 202253
MTRCZZ
METAR KCZZ 202252Z AUTO 24013KT 26/12 A2990 RMK AO1 SLP094 T02610122





000
SAUS46 KSGX 202252
MTRSAN
METAR KSAN 202251Z 31009KT 9SM FEW010 SCT080 24/15 A2991 RMK AO2
SLP127 T02440150





000
SAUS46 KSGX 202153
MTRCZZ
METAR KCZZ 202152Z AUTO 22012KT 27/11 A2990 RMK AO1 SLP097 T02720111





000
SAUS46 KSGX 202152
MTRSAN
METAR KSAN 202151Z 27007KT 10SM FEW012 SCT030 24/15 A2991 RMK AO2
SLP130 T02440150





000
SAUS46 KSGX 202053
MTRCZZ
METAR KCZZ 202052Z AUTO 25013G18KT 28/10 A2991 RMK AO1 SLP099
T02780100 58012





000
SAUS46 KSGX 202052
MTRSAN
METAR KSAN 202051Z 27007KT 10SM FEW013 SCT029 24/15 A2992 RMK AO2
SLP133 T02440150 58011





000
SAUS46 KSGX 201953
MTRCZZ
METAR KCZZ 201952Z AUTO 23010KT 27/11 A2994 RMK AO1 SLP108 T02670111





000
SAUS46 KSGX 201952
MTRSAN
METAR KSAN 201951Z 28011KT 10SM FEW013 SCT029 24/15 A2995 RMK AO2
SLP141 T02440150





000
SAUS46 KSGX 201937
MTRSAN
SPECI KSAN 201935Z 28007KT 10SM FEW013 SCT029 24/15 A2995 RMK AO2





000
SAUS46 KSGX 201853
MTRCZZ
METAR KCZZ 201852Z AUTO 23011KT 26/12 A2995 RMK AO1 SLP110 T02610122





000
SAUS46 KSGX 201852
MTRSAN
METAR KSAN 201851Z 30009KT 10SM BKN029 24/15 A2995 RMK AO2 SLP143
T02440150





000
SAUS46 KSGX 201753
MTRCZZ
METAR KCZZ 201752Z AUTO 23008KT 25/12 A2995 RMK AO1 SLP112 T02500117
10250 20100 58001





000
SAUS46 KSGX 201752
MTRSAN
METAR KSAN 201751Z 28008KT 10SM BKN025 24/16 A2996 RMK AO2 SLP144
T02390156 10239 20217 51005





000
SAUS46 KSGX 201653
MTRCZZ
METAR KCZZ 201652Z AUTO 11003KT 24/13 A2995 RMK AO1 SLP113 T02390128





000
SAUS46 KSGX 201652
MTRSAN
METAR KSAN 201651Z 23005KT 10SM BKN027 23/16 A2996 RMK AO2 SLP144
T02280156





    US Dept of Commerce
    National Oceanic and Atmospheric Administration
    National Weather Service
    1325 East West Highway
    Silver Spring, MD 20910
    Page Author: NWS Internet Services Team
Disclaimer
Information Quality
Credits
Glossary
Privacy Policy
Freedom of Information Act (FOIA)
About Us
Career Opportunities